PWSweather.com
Personal Weather Stations
Station Observations
BC052CD
On, Kemptville, ON K0G 1J0

OnKemptville, ON K0G 1J0

Lat: 45.0173179, Lon: -75.6329355

Elevation: 295

Station Type: National Geographic 265NC

http://kerrentweather.ca

High Low Average
Temperature 20.3°F-6.5°C 7.0°F-13.9°C 11.1°F-11.6°C
Dew Point 13.1°F-10.5°C -2.1°F-18.9°C 2.0°F-16.7°C
Winds 7.5 mph 12.1 kmh Calm Calm 3.0 mph N4.8 kmh N
Wind Gusts 15.1 mph24.3 kmh 2.0 mph3.2 kmh 8.0 mph12.9 kmh
Humidity 73% 63% 66%
Pressure 30.46 in1031.5 mb 30.34 in1027.4 mb -
Precipitation 0.00 in0.0 mm - -
Hour Temp Dew Point Humidity Winds Wind Gusts Pressure Precip Precip Rate Daily Precip Total
12:00 AM 9.7°F-12.4°C -0.4°F-18.0°C 63% 2.8 mph N4.5 kmh N 9.5 mph15.3 kmh 30.34 in1027.4 mb 0.00 in0.0 mm 0.00 in0.0 mm 0.00 in0.0 mm
12:05 AM 9.5°F-12.5°C -0.6°F-18.1°C 63% 4.8 mph N7.7 kmh N 9.5 mph15.3 kmh 30.34 in1027.4 mb 0.00 in0.0 mm 0.00 in0.0 mm 0.00 in0.0 mm
12:10 AM 9.9°F-12.3°C -0.2°F-17.9°C 63% 2.8 mph N4.5 kmh N 6.7 mph10.8 kmh 30.34 in1027.4 mb 0.00 in0.0 mm 0.00 in0.0 mm 0.00 in0.0 mm
12:15 AM 9.1°F-12.7°C -0.9°F-18.3°C 63% 2.0 mph N3.2 kmh N 7.5 mph12.1 kmh 30.34 in1027.4 mb 0.00 in0.0 mm 0.00 in0.0 mm 0.00 in0.0 mm
12:20 AM 9.1°F-12.7°C -0.9°F-18.3°C 63% 0.8 mph N1.3 kmh N 7.5 mph12.1 kmh 30.34 in1027.4 mb 0.00 in0.0 mm 0.00 in0.0 mm 0.00 in0.0 mm
12:25 AM 9.0°F-12.8°C -1.1°F-18.4°C 63% 0.8 mph N1.3 kmh N 7.5 mph12.1 kmh 30.34 in1027.4 mb 0.00 in0.0 mm 0.00 in0.0 mm 0.00 in0.0 mm
12:30 AM 9.0°F-12.8°C -1.1°F-18.4°C 63% 0.8 mph N1.3 kmh N 4.8 mph7.7 kmh 30.35 in1027.8 mb 0.00 in0.0 mm 0.00 in0.0 mm 0.00 in0.0 mm
12:35 AM 8.8°F-12.9°C -1.3°F-18.5°C 63% 0.8 mph N1.3 kmh N 3.9 mph6.3 kmh 30.35 in1027.8 mb 0.00 in0.0 mm 0.00 in0.0 mm 0.00 in0.0 mm
12:40 AM 8.8°F-12.9°C -1.3°F-18.5°C 63% Calm Calm 3.9 mph6.3 kmh 30.35 in1027.8 mb 0.00 in0.0 mm 0.00 in0.0 mm 0.00 in0.0 mm
12:45 AM 8.8°F-12.9°C -1.3°F-18.5°C 63% 2.8 mph N4.5 kmh N 3.9 mph6.3 kmh 30.35 in1027.8 mb 0.00 in0.0 mm 0.00 in0.0 mm 0.00 in0.0 mm
12:50 AM 8.8°F-12.9°C -1.3°F-18.5°C 63% 2.0 mph N3.2 kmh N 4.8 mph7.7 kmh 30.35 in1027.8 mb 0.00 in0.0 mm 0.00 in0.0 mm 0.00 in0.0 mm
12:55 AM 8.8°F-12.9°C -1.3°F-18.5°C 63% 2.0 mph N3.2 kmh N 4.8 mph7.7 kmh 30.35 in1027.8 mb 0.00 in0.0 mm 0.00 in0.0 mm 0.00 in0.0 mm
01:00 AM 8.8°F-12.9°C -1.3°F-18.5°C 63% 4.8 mph N7.7 kmh N 6.7 mph10.8 kmh 30.34 in1027.4 mb 0.00 in0.0 mm 0.00 in0.0 mm 0.00 in0.0 mm
01:05 AM 10.0°F-12.2°C -0.1°F-17.8°C 63% 5.6 mph N9.0 kmh N 10.3 mph16.6 kmh 30.34 in1027.4 mb 0.00 in0.0 mm 0.00 in0.0 mm 0.00 in0.0 mm
01:10 AM 8.8°F-12.9°C -1.3°F-18.5°C 63% 4.8 mph N7.7 kmh N 10.3 mph16.6 kmh 30.34 in1027.4 mb 0.00 in0.0 mm 0.00 in0.0 mm 0.00 in0.0 mm
01:15 AM 8.8°F-12.9°C -0.9°F-18.3°C 64% 4.8 mph N7.7 kmh N 10.3 mph16.6 kmh 30.34 in1027.4 mb 0.00 in0.0 mm 0.00 in0.0 mm 0.00 in0.0 mm
01:20 AM 8.8°F-12.9°C -0.9°F-18.3°C 64% 2.0 mph N3.2 kmh N 7.5 mph12.1 kmh 30.34 in1027.4 mb 0.00 in0.0 mm 0.00 in0.0 mm 0.00 in0.0 mm
01:25 AM 8.8°F-12.9°C -0.9°F-18.3°C 64% 2.0 mph N3.2 kmh N 7.5 mph12.1 kmh 30.34 in1027.4 mb 0.00 in0.0 mm 0.00 in0.0 mm 0.00 in0.0 mm
01:30 AM 9.0°F-12.8°C -0.8°F-18.2°C 64% 2.8 mph N4.5 kmh N 4.8 mph7.7 kmh 30.35 in1027.8 mb 0.00 in0.0 mm 0.00 in0.0 mm 0.00 in0.0 mm
01:35 AM 9.0°F-12.8°C -0.8°F-18.2°C 64% 2.0 mph N3.2 kmh N 5.6 mph9.0 kmh 30.35 in1027.8 mb 0.00 in0.0 mm 0.00 in0.0 mm 0.00 in0.0 mm
01:40 AM 9.0°F-12.8°C -0.8°F-18.2°C 64% 4.8 mph N7.7 kmh N 6.7 mph10.8 kmh 30.35 in1027.8 mb 0.00 in0.0 mm 0.00 in0.0 mm 0.00 in0.0 mm
01:45 AM 9.0°F-12.8°C -0.8°F-18.2°C 64% 2.0 mph N3.2 kmh N 6.7 mph10.8 kmh 30.35 in1027.8 mb 0.00 in0.0 mm 0.00 in0.0 mm 0.00 in0.0 mm
01:50 AM 9.0°F-12.8°C -0.8°F-18.2°C 64% 3.9 mph N6.3 kmh N 8.7 mph14.0 kmh 30.35 in1027.8 mb 0.00 in0.0 mm 0.00 in0.0 mm 0.00 in0.0 mm
01:55 AM 9.1°F-12.7°C -0.6°F-18.1°C 64% 0.8 mph N1.3 kmh N 8.7 mph14.0 kmh 30.37 in1028.4 mb 0.00 in0.0 mm 0.00 in0.0 mm 0.00 in0.0 mm
02:00 AM 9.1°F-12.7°C -0.6°F-18.1°C 64% 0.8 mph N1.3 kmh N 8.7 mph14.0 kmh 30.38 in1028.8 mb 0.00 in0.0 mm 0.00 in0.0 mm 0.00 in0.0 mm
02:05 AM 9.3°F-12.6°C -0.4°F-18.0°C 64% 2.8 mph N4.5 kmh N 6.7 mph10.8 kmh 30.38 in1028.8 mb 0.00 in0.0 mm 0.00 in0.0 mm 0.00 in0.0 mm
02:10 AM 9.3°F-12.6°C -0.4°F-18.0°C 64% 2.8 mph N4.5 kmh N 6.7 mph10.8 kmh 30.38 in1028.8 mb 0.00 in0.0 mm 0.00 in0.0 mm 0.00 in0.0 mm
02:15 AM 9.3°F-12.6°C -0.4°F-18.0°C 64% 2.0 mph N3.2 kmh N 6.7 mph10.8 kmh 30.38 in1028.8 mb 0.00 in0.0 mm 0.00 in0.0 mm 0.00 in0.0 mm
02:20 AM 9.3°F-12.6°C -0.4°F-18.0°C 64% 2.0 mph N3.2 kmh N 4.8 mph7.7 kmh 30.37 in1028.4 mb 0.00 in0.0 mm 0.00 in0.0 mm 0.00 in0.0 mm
02:25 AM 9.3°F-12.6°C -0.4°F-18.0°C 64% 3.9 mph N6.3 kmh N 8.7 mph14.0 kmh 30.37 in1028.4 mb 0.00 in0.0 mm 0.00 in0.0 mm 0.00 in0.0 mm
02:30 AM 9.3°F-12.6°C -0.4°F-18.0°C 64% 4.8 mph N7.7 kmh N 8.7 mph14.0 kmh 30.37 in1028.4 mb 0.00 in0.0 mm 0.00 in0.0 mm 0.00 in0.0 mm
02:35 AM 9.3°F-12.6°C -0.4°F-18.0°C 64% 3.9 mph N6.3 kmh N 8.7 mph14.0 kmh 30.36 in1028.1 mb 0.00 in0.0 mm 0.00 in0.0 mm 0.00 in0.0 mm
02:40 AM 9.3°F-12.6°C -0.4°F-18.0°C 64% 3.9 mph N6.3 kmh N 7.5 mph12.1 kmh 30.36 in1028.1 mb 0.00 in0.0 mm 0.00 in0.0 mm 0.00 in0.0 mm
02:45 AM 9.3°F-12.6°C -0.4°F-18.0°C 64% 2.0 mph N3.2 kmh N 7.5 mph12.1 kmh 30.36 in1028.1 mb 0.00 in0.0 mm 0.00 in0.0 mm 0.00 in0.0 mm
02:50 AM 9.1°F-12.7°C -0.6°F-18.1°C 64% 0.8 mph N1.3 kmh N 5.6 mph9.0 kmh 30.37 in1028.4 mb 0.00 in0.0 mm 0.00 in0.0 mm 0.00 in0.0 mm
02:55 AM 9.0°F-12.8°C -0.8°F-18.2°C 64% 0.8 mph N1.3 kmh N 5.6 mph9.0 kmh 30.37 in1028.4 mb 0.00 in0.0 mm 0.00 in0.0 mm 0.00 in0.0 mm
03:00 AM 9.0°F-12.8°C -0.8°F-18.2°C 64% 4.8 mph N7.7 kmh N 7.5 mph12.1 kmh 30.37 in1028.4 mb 0.00 in0.0 mm 0.00 in0.0 mm 0.00 in0.0 mm
03:05 AM 9.0°F-12.8°C -0.8°F-18.2°C 64% 4.8 mph N7.7 kmh N 8.7 mph14.0 kmh 30.37 in1028.4 mb 0.00 in0.0 mm 0.00 in0.0 mm 0.00 in0.0 mm
03:10 AM 8.8°F-12.9°C -0.9°F-18.3°C 64% 3.9 mph N6.3 kmh N 8.7 mph14.0 kmh 30.36 in1028.1 mb 0.00 in0.0 mm 0.00 in0.0 mm 0.00 in0.0 mm
03:15 AM 8.8°F-12.9°C -0.9°F-18.3°C 64% 5.6 mph N9.0 kmh N 10.3 mph16.6 kmh 30.36 in1028.1 mb 0.00 in0.0 mm 0.00 in0.0 mm 0.00 in0.0 mm
03:20 AM 8.8°F-12.9°C -0.9°F-18.3°C 64% 3.9 mph N6.3 kmh N 10.3 mph16.6 kmh 30.36 in1028.1 mb 0.00 in0.0 mm 0.00 in0.0 mm 0.00 in0.0 mm
03:25 AM 8.8°F-12.9°C -0.9°F-18.3°C 64% 5.6 mph N9.0 kmh N 10.3 mph16.6 kmh 30.36 in1028.1 mb 0.00 in0.0 mm 0.00 in0.0 mm 0.00 in0.0 mm
03:30 AM 8.8°F-12.9°C -0.9°F-18.3°C 64% 2.0 mph N3.2 kmh N 7.5 mph12.1 kmh 30.36 in1028.1 mb 0.00 in0.0 mm 0.00 in0.0 mm 0.00 in0.0 mm
03:35 AM 8.8°F-12.9°C -0.9°F-18.3°C 64% 3.9 mph N6.3 kmh N 7.5 mph12.1 kmh 30.37 in1028.4 mb 0.00 in0.0 mm 0.00 in0.0 mm 0.00 in0.0 mm
03:40 AM 8.8°F-12.9°C -0.9°F-18.3°C 64% 4.8 mph N7.7 kmh N 9.5 mph15.3 kmh 30.36 in1028.1 mb 0.00 in0.0 mm 0.00 in0.0 mm 0.00 in0.0 mm
03:45 AM 8.8°F-12.9°C -0.9°F-18.3°C 64% 7.5 mph N12.1 kmh N 11.5 mph18.5 kmh 30.36 in1028.1 mb 0.00 in0.0 mm 0.00 in0.0 mm 0.00 in0.0 mm
03:50 AM 8.6°F-13.0°C -0.8°F-18.2°C 65% 7.5 mph N12.1 kmh N 11.5 mph18.5 kmh 30.36 in1028.1 mb 0.00 in0.0 mm 0.00 in0.0 mm 0.00 in0.0 mm
03:55 AM 8.8°F-12.9°C -0.6°F-18.1°C 65% 4.8 mph N7.7 kmh N 11.5 mph18.5 kmh 30.36 in1028.1 mb 0.00 in0.0 mm 0.00 in0.0 mm 0.00 in0.0 mm
04:00 AM 8.8°F-12.9°C -0.6°F-18.1°C 65% 3.9 mph N6.3 kmh N 11.5 mph18.5 kmh 30.36 in1028.1 mb 0.00 in0.0 mm 0.00 in0.0 mm 0.00 in0.0 mm
04:05 AM 8.8°F-12.9°C -0.6°F-18.1°C 65% 5.6 mph N9.0 kmh N 9.5 mph15.3 kmh 30.36 in1028.1 mb 0.00 in0.0 mm 0.00 in0.0 mm 0.00 in0.0 mm
04:10 AM 7.2°F-13.8°C -2.1°F-18.9°C 65% 5.6 mph N9.0 kmh N 10.3 mph16.6 kmh 30.36 in1028.1 mb 0.00 in0.0 mm 0.00 in0.0 mm 0.00 in0.0 mm
04:15 AM 8.4°F-13.1°C -0.9°F-18.3°C 65% 5.6 mph N9.0 kmh N 10.3 mph16.6 kmh 30.37 in1028.4 mb 0.00 in0.0 mm 0.00 in0.0 mm 0.00 in0.0 mm
04:20 AM 8.2°F-13.2°C -1.1°F-18.4°C 65% 5.6 mph N9.0 kmh N 10.3 mph16.6 kmh 30.36 in1028.1 mb 0.00 in0.0 mm 0.00 in0.0 mm 0.00 in0.0 mm
04:25 AM 8.2°F-13.2°C -1.1°F-18.4°C 65% 4.8 mph N7.7 kmh N 9.5 mph15.3 kmh 30.36 in1028.1 mb 0.00 in0.0 mm 0.00 in0.0 mm 0.00 in0.0 mm
04:30 AM 8.2°F-13.2°C -1.1°F-18.4°C 65% 5.6 mph N9.0 kmh N 10.3 mph16.6 kmh 30.36 in1028.1 mb 0.00 in0.0 mm 0.00 in0.0 mm 0.00 in0.0 mm
04:35 AM 8.1°F-13.3°C -1.3°F-18.5°C 65% 3.9 mph N6.3 kmh N 10.3 mph16.6 kmh 30.36 in1028.1 mb 0.00 in0.0 mm 0.00 in0.0 mm 0.00 in0.0 mm
04:40 AM 8.1°F-13.3°C -1.3°F-18.5°C 65% 6.7 mph N10.8 kmh N 10.3 mph16.6 kmh 30.36 in1028.1 mb 0.00 in0.0 mm 0.00 in0.0 mm 0.00 in0.0 mm
04:45 AM 8.1°F-13.3°C -1.3°F-18.5°C 65% 2.8 mph N4.5 kmh N 10.3 mph16.6 kmh 30.36 in1028.1 mb 0.00 in0.0 mm 0.00 in0.0 mm 0.00 in0.0 mm
04:50 AM 8.1°F-13.3°C -1.3°F-18.5°C 65% 3.9 mph N6.3 kmh N 10.3 mph16.6 kmh 30.36 in1028.1 mb 0.00 in0.0 mm 0.00 in0.0 mm 0.00 in0.0 mm
04:55 AM 8.1°F-13.3°C -1.3°F-18.5°C 65% 6.7 mph N10.8 kmh N 12.3 mph19.8 kmh 30.36 in1028.1 mb 0.00 in0.0 mm 0.00 in0.0 mm 0.00 in0.0 mm
05:00 AM 8.1°F-13.3°C -1.3°F-18.5°C 65% 3.9 mph N6.3 kmh N 12.3 mph19.8 kmh 30.36 in1028.1 mb 0.00 in0.0 mm 0.00 in0.0 mm 0.00 in0.0 mm
05:05 AM 8.1°F-13.3°C -1.3°F-18.5°C 65% 5.6 mph N9.0 kmh N 12.3 mph19.8 kmh 30.36 in1028.1 mb 0.00 in0.0 mm 0.00 in0.0 mm 0.00 in0.0 mm
05:10 AM 7.9°F-13.4°C -1.5°F-18.6°C 65% 7.5 mph N12.1 kmh N 11.5 mph18.5 kmh 30.36 in1028.1 mb 0.00 in0.0 mm 0.00 in0.0 mm 0.00 in0.0 mm
05:15 AM 7.9°F-13.4°C -1.5°F-18.6°C 65% 3.9 mph N6.3 kmh N 11.5 mph18.5 kmh 30.36 in1028.1 mb 0.00 in0.0 mm 0.00 in0.0 mm 0.00 in0.0 mm
05:20 AM 7.9°F-13.4°C -1.5°F-18.6°C 65% 4.8 mph N7.7 kmh N 11.5 mph18.5 kmh 30.36 in1028.1 mb 0.00 in0.0 mm 0.00 in0.0 mm 0.00 in0.0 mm
05:25 AM 7.9°F-13.4°C -1.5°F-18.6°C 65% 5.6 mph N9.0 kmh N 9.5 mph15.3 kmh 30.36 in1028.1 mb 0.00 in0.0 mm 0.00 in0.0 mm 0.00 in0.0 mm
05:30 AM 7.9°F-13.4°C -1.5°F-18.6°C 65% 5.6 mph N9.0 kmh N 14.3 mph23.0 kmh 30.36 in1028.1 mb 0.00 in0.0 mm 0.00 in0.0 mm 0.00 in0.0 mm
05:35 AM 7.9°F-13.4°C -1.5°F-18.6°C 65% 6.7 mph N10.8 kmh N 14.3 mph23.0 kmh 30.37 in1028.4 mb 0.00 in0.0 mm 0.00 in0.0 mm 0.00 in0.0 mm
05:40 AM 7.9°F-13.4°C -1.5°F-18.6°C 65% 3.9 mph N6.3 kmh N 14.3 mph23.0 kmh 30.36 in1028.1 mb 0.00 in0.0 mm 0.00 in0.0 mm 0.00 in0.0 mm
05:45 AM 7.7°F-13.5°C -1.6°F-18.7°C 65% 3.9 mph N6.3 kmh N 10.3 mph16.6 kmh 30.37 in1028.4 mb 0.00 in0.0 mm 0.00 in0.0 mm 0.00 in0.0 mm
05:50 AM 7.7°F-13.5°C -1.3°F-18.5°C 66% 4.8 mph N7.7 kmh N 8.7 mph14.0 kmh 30.37 in1028.4 mb 0.00 in0.0 mm 0.00 in0.0 mm 0.00 in0.0 mm
05:55 AM 7.7°F-13.5°C -1.3°F-18.5°C 66% 4.8 mph N7.7 kmh N 8.7 mph14.0 kmh 30.38 in1028.8 mb 0.00 in0.0 mm 0.00 in0.0 mm 0.00 in0.0 mm
06:00 AM 7.7°F-13.5°C -1.3°F-18.5°C 66% 2.0 mph N3.2 kmh N 8.7 mph14.0 kmh 30.38 in1028.8 mb 0.00 in0.0 mm 0.00 in0.0 mm 0.00 in0.0 mm
06:05 AM 7.7°F-13.5°C -1.3°F-18.5°C 66% 3.9 mph N6.3 kmh N 8.7 mph14.0 kmh 30.39 in1029.1 mb 0.00 in0.0 mm 0.00 in0.0 mm 0.00 in0.0 mm
06:10 AM 7.7°F-13.5°C -1.3°F-18.5°C 66% 4.8 mph N7.7 kmh N 8.7 mph14.0 kmh 30.38 in1028.8 mb 0.00 in0.0 mm 0.00 in0.0 mm 0.00 in0.0 mm
06:15 AM 7.7°F-13.5°C -1.3°F-18.5°C 66% 5.6 mph N9.0 kmh N 10.3 mph16.6 kmh 30.38 in1028.8 mb 0.00 in0.0 mm 0.00 in0.0 mm 0.00 in0.0 mm
06:20 AM 7.5°F-13.6°C -1.5°F-18.6°C 66% 4.8 mph N7.7 kmh N 10.3 mph16.6 kmh 30.38 in1028.8 mb 0.00 in0.0 mm 0.00 in0.0 mm 0.00 in0.0 mm
06:25 AM 7.5°F-13.6°C -1.5°F-18.6°C 66% 2.8 mph N4.5 kmh N 10.3 mph16.6 kmh 30.38 in1028.8 mb 0.00 in0.0 mm 0.00 in0.0 mm 0.00 in0.0 mm
06:30 AM 7.5°F-13.6°C -1.5°F-18.6°C 66% 4.8 mph N7.7 kmh N 7.5 mph12.1 kmh 30.38 in1028.8 mb 0.00 in0.0 mm 0.00 in0.0 mm 0.00 in0.0 mm
06:35 AM 7.3°F-13.7°C -1.6°F-18.7°C 66% 2.0 mph N3.2 kmh N 7.5 mph12.1 kmh 30.39 in1029.1 mb 0.00 in0.0 mm 0.00 in0.0 mm 0.00 in0.0 mm
06:40 AM 7.3°F-13.7°C -1.6°F-18.7°C 66% 3.9 mph N6.3 kmh N 7.5 mph12.1 kmh 30.39 in1029.1 mb 0.00 in0.0 mm 0.00 in0.0 mm 0.00 in0.0 mm
06:45 AM 7.3°F-13.7°C -1.6°F-18.7°C 66% 3.9 mph N6.3 kmh N 7.5 mph12.1 kmh 30.38 in1028.8 mb 0.00 in0.0 mm 0.00 in0.0 mm 0.00 in0.0 mm
06:50 AM 7.2°F-13.8°C -1.8°F-18.8°C 66% 2.8 mph N4.5 kmh N 8.7 mph14.0 kmh 30.38 in1028.8 mb 0.00 in0.0 mm 0.00 in0.0 mm 0.00 in0.0 mm
06:55 AM 7.2°F-13.8°C -1.8°F-18.8°C 66% 4.8 mph N7.7 kmh N 8.7 mph14.0 kmh 30.39 in1029.1 mb 0.00 in0.0 mm 0.00 in0.0 mm 0.00 in0.0 mm
07:00 AM 7.2°F-13.8°C -1.8°F-18.8°C 66% 3.9 mph N6.3 kmh N 8.7 mph14.0 kmh 30.38 in1028.8 mb 0.00 in0.0 mm 0.00 in0.0 mm 0.00 in0.0 mm
07:05 AM 7.2°F-13.8°C -1.2°F-18.4°C 67% 2.8 mph N4.5 kmh N 7.5 mph12.1 kmh 30.38 in1028.8 mb 0.00 in0.0 mm 0.00 in0.0 mm 0.00 in0.0 mm
07:10 AM 7.0°F-13.9°C -1.4°F-18.6°C 67% 2.8 mph N4.5 kmh N 9.5 mph15.3 kmh 30.39 in1029.1 mb 0.00 in0.0 mm 0.00 in0.0 mm 0.00 in0.0 mm
07:30 AM 7.2°F-13.8°C -1.4°F-18.6°C 67% 6.7 mph N10.8 kmh N 11.5 mph18.5 kmh 30.39 in1029.1 mb 0.00 in0.0 mm 0.00 in0.0 mm 0.00 in0.0 mm
07:45 AM 7.3°F-13.7°C -0.9°F-18.3°C 68% 3.9 mph N6.3 kmh N 10.3 mph16.6 kmh 30.39 in1029.1 mb 0.00 in0.0 mm 0.00 in0.0 mm 0.00 in0.0 mm
08:00 AM 7.5°F-13.6°C -0.7°F-18.2°C 68% 3.9 mph N6.3 kmh N 10.3 mph16.6 kmh 30.39 in1029.1 mb 0.00 in0.0 mm 0.00 in0.0 mm 0.00 in0.0 mm
08:15 AM 7.7°F-13.5°C -0.6°F-18.1°C 68% 3.9 mph N6.3 kmh N 9.5 mph15.3 kmh 30.40 in1029.5 mb 0.00 in0.0 mm 0.00 in0.0 mm 0.00 in0.0 mm
08:30 AM 7.9°F-13.4°C -0.4°F-18.0°C 68% 3.9 mph N6.3 kmh N 10.3 mph16.6 kmh 30.41 in1029.8 mb 0.00 in0.0 mm 0.00 in0.0 mm 0.00 in0.0 mm
08:45 AM 8.1°F-13.3°C -0.2°F-17.9°C 68% 3.9 mph N6.3 kmh N 9.5 mph15.3 kmh 30.41 in1029.8 mb 0.00 in0.0 mm 0.00 in0.0 mm 0.00 in0.0 mm
09:00 AM 8.4°F-13.1°C 0.4°F-17.6°C 69% 4.8 mph N7.7 kmh N 10.3 mph16.6 kmh 30.41 in1029.8 mb 0.00 in0.0 mm 0.00 in0.0 mm 0.00 in0.0 mm
09:15 AM 8.6°F-13.0°C 0.6°F-17.4°C 69% 3.9 mph N6.3 kmh N 8.7 mph14.0 kmh 30.41 in1029.8 mb 0.00 in0.0 mm 0.00 in0.0 mm 0.00 in0.0 mm
09:30 AM 9.0°F-12.8°C 1.0°F-17.2°C 69% 5.6 mph N9.0 kmh N 10.3 mph16.6 kmh 30.42 in1030.1 mb 0.00 in0.0 mm 0.00 in0.0 mm 0.00 in0.0 mm
09:45 AM 9.1°F-12.7°C 1.1°F-17.2°C 69% 0.8 mph N1.3 kmh N 12.3 mph19.8 kmh 30.42 in1030.1 mb 0.00 in0.0 mm 0.00 in0.0 mm 0.00 in0.0 mm
10:00 AM 9.3°F-12.6°C 1.3°F-17.1°C 69% 2.8 mph N4.5 kmh N 9.5 mph15.3 kmh 30.43 in1030.5 mb 0.00 in0.0 mm 0.00 in0.0 mm 0.00 in0.0 mm
10:15 AM 9.7°F-12.4°C 1.6°F-16.9°C 69% 3.9 mph N6.3 kmh N 10.3 mph16.6 kmh 30.43 in1030.5 mb 0.00 in0.0 mm 0.00 in0.0 mm 0.00 in0.0 mm
10:30 AM 10.8°F-11.8°C 2.7°F-16.3°C 69% 5.6 mph N9.0 kmh N 15.1 mph24.3 kmh 30.43 in1030.5 mb 0.00 in0.0 mm 0.00 in0.0 mm 0.00 in0.0 mm
10:45 AM 12.2°F-11.0°C 4.1°F-15.5°C 69% 2.8 mph N4.5 kmh N 9.5 mph15.3 kmh 30.43 in1030.5 mb 0.00 in0.0 mm 0.00 in0.0 mm 0.00 in0.0 mm
11:00 AM 12.7°F-10.7°C 4.6°F-15.2°C 69% 2.8 mph N4.5 kmh N 8.7 mph14.0 kmh 30.43 in1030.5 mb 0.00 in0.0 mm 0.00 in0.0 mm 0.00 in0.0 mm
11:15 AM 13.1°F-10.5°C 4.6°F-15.2°C 68% 4.8 mph N7.7 kmh N 9.5 mph15.3 kmh 30.43 in1030.5 mb 0.00 in0.0 mm 0.00 in0.0 mm 0.00 in0.0 mm
11:30 AM 13.5°F-10.3°C 4.9°F-15.1°C 68% 2.8 mph N4.5 kmh N 9.5 mph15.3 kmh 30.42 in1030.1 mb 0.00 in0.0 mm 0.00 in0.0 mm 0.00 in0.0 mm
11:45 AM 14.0°F-10.0°C 5.5°F-14.7°C 68% 5.6 mph N9.0 kmh N 9.5 mph15.3 kmh 30.41 in1029.8 mb 0.00 in0.0 mm 0.00 in0.0 mm 0.00 in0.0 mm
12:00 PM 14.4°F-9.8°C 5.8°F-14.6°C 68% 3.9 mph N6.3 kmh N 13.4 mph21.6 kmh 30.41 in1029.8 mb 0.00 in0.0 mm 0.00 in0.0 mm 0.00 in0.0 mm
12:15 PM 14.7°F-9.6°C 5.8°F-14.6°C 67% 4.8 mph N7.7 kmh N 9.5 mph15.3 kmh 30.41 in1029.8 mb 0.00 in0.0 mm 0.00 in0.0 mm 0.00 in0.0 mm
12:30 PM 15.1°F-9.4°C 6.2°F-14.3°C 67% 4.8 mph N7.7 kmh N 9.5 mph15.3 kmh 30.40 in1029.5 mb 0.00 in0.0 mm 0.00 in0.0 mm 0.00 in0.0 mm
12:45 PM 15.4°F-9.2°C 6.5°F-14.2°C 67% 5.6 mph N9.0 kmh N 9.5 mph15.3 kmh 30.41 in1029.8 mb 0.00 in0.0 mm 0.00 in0.0 mm 0.00 in0.0 mm
01:00 PM 15.6°F-9.1°C 6.4°F-14.2°C 66% 3.9 mph N6.3 kmh N 9.5 mph15.3 kmh 30.41 in1029.8 mb 0.00 in0.0 mm 0.00 in0.0 mm 0.00 in0.0 mm
01:15 PM 16.2°F-8.8°C 6.9°F-13.9°C 66% 3.9 mph N6.3 kmh N 10.3 mph16.6 kmh 30.40 in1029.5 mb 0.00 in0.0 mm 0.00 in0.0 mm 0.00 in0.0 mm
01:30 PM 16.7°F-8.5°C 7.4°F-13.7°C 66% 2.8 mph N4.5 kmh N 9.5 mph15.3 kmh 30.41 in1029.8 mb 0.00 in0.0 mm 0.00 in0.0 mm 0.00 in0.0 mm
01:45 PM 16.9°F-8.4°C 7.2°F-13.8°C 65% 2.8 mph N4.5 kmh N 6.7 mph10.8 kmh 30.42 in1030.1 mb 0.00 in0.0 mm 0.00 in0.0 mm 0.00 in0.0 mm
02:00 PM 16.9°F-8.4°C 7.2°F-13.8°C 65% 2.8 mph N4.5 kmh N 9.5 mph15.3 kmh 30.41 in1029.8 mb 0.00 in0.0 mm 0.00 in0.0 mm 0.00 in0.0 mm
02:15 PM 17.1°F-8.3°C 7.4°F-13.7°C 65% 2.8 mph N4.5 kmh N 7.5 mph12.1 kmh 30.41 in1029.8 mb 0.00 in0.0 mm 0.00 in0.0 mm 0.00 in0.0 mm
02:30 PM 17.1°F-8.3°C 7.4°F-13.7°C 65% 2.0 mph N3.2 kmh N 6.7 mph10.8 kmh 30.43 in1030.5 mb 0.00 in0.0 mm 0.00 in0.0 mm 0.00 in0.0 mm
02:45 PM 17.4°F-8.1°C 7.7°F-13.5°C 65% 2.0 mph N3.2 kmh N 7.5 mph12.1 kmh 30.43 in1030.5 mb 0.00 in0.0 mm 0.00 in0.0 mm 0.00 in0.0 mm
04:45 PM 17.4°F-8.1°C 7.7°F-13.5°C 65% 2.0 mph N3.2 kmh N 5.6 mph9.0 kmh 30.46 in1031.5 mb 0.00 in0.0 mm 0.00 in0.0 mm 0.00 in0.0 mm
05:00 PM 17.4°F-8.1°C 7.7°F-13.5°C 65% 2.8 mph N4.5 kmh N 7.5 mph12.1 kmh 30.46 in1031.5 mb 0.00 in0.0 mm 0.00 in0.0 mm 0.00 in0.0 mm
05:15 PM 17.1°F-8.3°C 7.4°F-13.7°C 65% 0.8 mph N1.3 kmh N 4.8 mph7.7 kmh 30.46 in1031.5 mb 0.00 in0.0 mm 0.00 in0.0 mm 0.00 in0.0 mm
05:30 PM 16.5°F-8.6°C 6.9°F-13.9°C 65% 2.0 mph N3.2 kmh N 5.6 mph9.0 kmh 30.45 in1031.2 mb 0.00 in0.0 mm 0.00 in0.0 mm 0.00 in0.0 mm
05:45 PM 16.0°F-8.9°C 6.4°F-14.2°C 65% Calm Calm 2.8 mph4.5 kmh 30.44 in1030.8 mb 0.00 in0.0 mm 0.00 in0.0 mm 0.00 in0.0 mm
06:00 PM 15.4°F-9.2°C 5.8°F-14.6°C 65% Calm Calm 2.0 mph3.2 kmh 30.46 in1031.5 mb 0.00 in0.0 mm 0.00 in0.0 mm 0.00 in0.0 mm
06:15 PM 15.3°F-9.3°C 6.0°F-14.4°C 66% 0.8 mph N1.3 kmh N 4.8 mph7.7 kmh 30.46 in1031.5 mb 0.00 in0.0 mm 0.00 in0.0 mm 0.00 in0.0 mm
06:30 PM 16.0°F-8.9°C 7.0°F-13.9°C 67% 2.8 mph N4.5 kmh N 5.6 mph9.0 kmh 30.46 in1031.5 mb 0.00 in0.0 mm 0.00 in0.0 mm 0.00 in0.0 mm
06:45 PM 16.5°F-8.6°C 7.9°F-13.4°C 68% 2.8 mph N4.5 kmh N 5.6 mph9.0 kmh 30.45 in1031.2 mb 0.00 in0.0 mm 0.00 in0.0 mm 0.00 in0.0 mm
07:00 PM 16.9°F-8.4°C 8.2°F-13.2°C 68% 2.0 mph N3.2 kmh N 6.7 mph10.8 kmh 30.46 in1031.5 mb 0.00 in0.0 mm 0.00 in0.0 mm 0.00 in0.0 mm
07:15 PM 17.2°F-8.2°C 8.6°F-13.0°C 68% 0.8 mph N1.3 kmh N 7.5 mph12.1 kmh 30.46 in1031.5 mb 0.00 in0.0 mm 0.00 in0.0 mm 0.00 in0.0 mm
07:30 PM 17.6°F-8.0°C 9.2°F-12.7°C 69% 2.8 mph N4.5 kmh N 6.7 mph10.8 kmh 30.46 in1031.5 mb 0.00 in0.0 mm 0.00 in0.0 mm 0.00 in0.0 mm
07:45 PM 17.8°F-7.9°C 9.4°F-12.6°C 69% 2.0 mph N3.2 kmh N 6.7 mph10.8 kmh 30.46 in1031.5 mb 0.00 in0.0 mm 0.00 in0.0 mm 0.00 in0.0 mm
08:00 PM 18.1°F-7.7°C 9.7°F-12.4°C 69% 2.0 mph N3.2 kmh N 8.7 mph14.0 kmh 30.45 in1031.2 mb 0.00 in0.0 mm 0.00 in0.0 mm 0.00 in0.0 mm
08:15 PM 18.1°F-7.7°C 9.7°F-12.4°C 69% 0.8 mph N1.3 kmh N 7.5 mph12.1 kmh 30.45 in1031.2 mb 0.00 in0.0 mm 0.00 in0.0 mm 0.00 in0.0 mm
08:30 PM 17.8°F-7.9°C 9.4°F-12.6°C 69% 0.8 mph N1.3 kmh N 5.6 mph9.0 kmh 30.45 in1031.2 mb 0.00 in0.0 mm 0.00 in0.0 mm 0.00 in0.0 mm
08:45 PM 17.6°F-8.0°C 9.2°F-12.7°C 69% 2.0 mph N3.2 kmh N 4.8 mph7.7 kmh 30.45 in1031.2 mb 0.00 in0.0 mm 0.00 in0.0 mm 0.00 in0.0 mm
09:00 PM 17.4°F-8.1°C 9.1°F-12.7°C 69% 0.8 mph N1.3 kmh N 4.8 mph7.7 kmh 30.45 in1031.2 mb 0.00 in0.0 mm 0.00 in0.0 mm 0.00 in0.0 mm
09:15 PM 17.1°F-8.3°C 8.7°F-12.9°C 69% Calm Calm 4.8 mph7.7 kmh 30.44 in1030.8 mb 0.00 in0.0 mm 0.00 in0.0 mm 0.00 in0.0 mm
09:30 PM 17.1°F-8.3°C 9.0°F-12.8°C 70% 0.8 mph N1.3 kmh N 4.8 mph7.7 kmh 30.44 in1030.8 mb 0.00 in0.0 mm 0.00 in0.0 mm 0.00 in0.0 mm
09:45 PM 17.2°F-8.2°C 9.2°F-12.7°C 70% Calm Calm 2.8 mph4.5 kmh 30.45 in1031.2 mb 0.00 in0.0 mm 0.00 in0.0 mm 0.00 in0.0 mm
10:00 PM 17.8°F-7.9°C 10.3°F-12.1°C 72% 2.0 mph N3.2 kmh N 2.8 mph4.5 kmh 30.45 in1031.2 mb 0.00 in0.0 mm 0.00 in0.0 mm 0.00 in0.0 mm
10:15 PM 18.5°F-7.5°C 11.3°F-11.5°C 73% 0.8 mph N1.3 kmh N 3.9 mph6.3 kmh 30.46 in1031.5 mb 0.00 in0.0 mm 0.00 in0.0 mm 0.00 in0.0 mm
10:30 PM 18.9°F-7.3°C 11.7°F-11.3°C 73% 2.0 mph N3.2 kmh N 3.9 mph6.3 kmh 30.45 in1031.2 mb 0.00 in0.0 mm 0.00 in0.0 mm 0.00 in0.0 mm
10:45 PM 19.2°F-7.1°C 12.0°F-11.1°C 73% 2.0 mph N3.2 kmh N 4.8 mph7.7 kmh 30.45 in1031.2 mb 0.00 in0.0 mm 0.00 in0.0 mm 0.00 in0.0 mm
11:00 PM 19.4°F-7.0°C 12.2°F-11.0°C 73% 0.8 mph N1.3 kmh N 4.8 mph7.7 kmh 30.46 in1031.5 mb 0.00 in0.0 mm 0.00 in0.0 mm 0.00 in0.0 mm
11:15 PM 19.8°F-6.8°C 12.6°F-10.8°C 73% 2.0 mph N3.2 kmh N 4.8 mph7.7 kmh 30.44 in1030.8 mb 0.00 in0.0 mm 0.00 in0.0 mm 0.00 in0.0 mm
11:30 PM 19.9°F-6.7°C 12.7°F-10.7°C 73% 2.8 mph N4.5 kmh N 5.6 mph9.0 kmh 30.43 in1030.5 mb 0.00 in0.0 mm 0.00 in0.0 mm 0.00 in0.0 mm
11:45 PM 20.3°F-6.5°C 13.1°F-10.5°C 73% 2.8 mph N4.5 kmh N 4.8 mph7.7 kmh 30.43 in1030.5 mb 0.00 in0.0 mm 0.00 in0.0 mm 0.00 in0.0 mm